createdAt,value
2024-04-17T00:04:25.192Z,3.92
2024-04-17T00:09:31.128Z,4.03
2024-04-17T00:14:39.557Z,5.32
2024-04-17T00:19:45.331Z,4.57
2024-04-17T00:24:51.151Z,4.43
2024-04-17T00:30:00.670Z,5.25
2024-04-17T00:35:06.810Z,5.40
2024-04-17T00:40:12.909Z,4.40
2024-04-17T00:45:21.343Z,5.38
2024-04-17T00:50:27.134Z,4.90
2024-04-17T00:55:33.376Z,5.57
2024-04-17T01:00:42.010Z,5.68
2024-04-17T01:05:47.941Z,4.28
2024-04-17T01:11:02.102Z,5.05
2024-04-17T01:16:11.052Z,5.43
2024-04-17T01:21:16.790Z,5.93
2024-04-17T01:26:25.465Z,4.47
2024-04-17T01:31:31.238Z,5.15
2024-04-17T01:36:37.086Z,4.68
2024-04-17T01:41:45.493Z,5.03
2024-04-17T01:46:51.387Z,5.05
2024-04-17T01:51:57.251Z,4.70
2024-04-17T01:57:05.743Z,5.53
2024-04-17T02:02:11.651Z,4.65
2024-04-17T02:07:17.454Z,4.63
2024-04-17T02:12:25.910Z,4.13
2024-04-17T02:17:31.800Z,4.25
2024-04-17T02:22:37.823Z,4.03
2024-04-17T02:27:46.315Z,4.32
2024-04-17T02:32:52.123Z,3.88
2024-04-17T02:37:58.001Z,3.83
2024-04-17T02:43:06.487Z,3.47
2024-04-17T02:48:12.301Z,4.10
2024-04-17T02:53:18.120Z,3.85
2024-04-17T02:58:26.500Z,3.65
2024-04-17T03:03:32.336Z,3.50
2024-04-17T03:08:43.103Z,3.80
2024-04-17T03:13:51.591Z,3.83
2024-04-17T03:18:58.063Z,3.70
2024-04-17T03:24:03.832Z,4.13
2024-04-17T03:29:12.268Z,4.22
2024-04-17T03:34:23.078Z,3.92
2024-04-17T03:39:28.883Z,4.38
2024-04-17T03:44:37.329Z,4.05
2024-04-17T03:49:43.197Z,3.63
2024-04-17T03:54:49.089Z,3.47
2024-04-17T03:59:57.516Z,3.53
2024-04-17T04:05:03.398Z,3.30
2024-04-17T04:10:14.310Z,3.50
2024-04-17T04:15:22.781Z,3.63
2024-04-17T04:20:28.636Z,3.88
2024-04-17T04:25:34.459Z,3.92
2024-04-17T04:30:43.217Z,4.43
2024-04-17T04:35:49.010Z,4.25
2024-04-17T04:40:54.940Z,4.35
2024-04-17T04:46:03.353Z,5.22
2024-04-17T04:51:09.207Z,4.40
2024-04-17T04:56:15.644Z,4.75
2024-04-17T05:01:25.879Z,4.65
2024-04-17T05:06:31.845Z,4.28
2024-04-17T05:11:37.739Z,4.00
2024-04-17T05:16:46.300Z,4.13
2024-04-17T05:21:52.093Z,4.07
2024-04-17T05:26:57.908Z,3.95
2024-04-17T05:32:06.383Z,4.38
2024-04-17T05:37:12.216Z,4.22
2024-04-17T05:42:17.979Z,4.82
2024-04-17T05:47:27.165Z,3.83
2024-04-17T05:52:32.990Z,4.15
2024-04-17T05:57:38.744Z,3.75
2024-04-17T06:02:47.249Z,4.20
2024-04-17T06:07:53.015Z,4.30
2024-04-17T06:12:59.516Z,4.20
2024-04-17T06:18:08.880Z,3.92
2024-04-17T06:23:14.886Z,4.10
2024-04-17T06:28:20.683Z,2.70
2024-04-17T06:33:29.132Z,3.17
2024-04-17T06:38:34.876Z,2.63
2024-04-17T06:43:41.437Z,3.13
2024-04-17T06:48:50.035Z,2.75
2024-04-17T06:53:58.562Z,2.42
2024-04-17T06:59:04.417Z,3.22
2024-04-17T07:04:13.048Z,2.72
2024-04-17T07:09:18.899Z,2.00
2024-04-17T07:14:24.751Z,2.50
2024-04-17T07:19:33.339Z,2.33
2024-04-17T07:24:39.200Z,2.55
2024-04-17T07:29:44.927Z,2.40
2024-04-17T07:34:54.725Z,2.15
2024-04-17T07:40:00.563Z,2.13
2024-04-17T07:45:06.966Z,2.22
2024-04-17T07:50:15.467Z,2.35
2024-04-17T07:55:21.455Z,2.05
2024-04-17T08:00:27.356Z,1.63
2024-04-17T08:05:36.272Z,1.85
2024-04-17T08:10:42.208Z,1.75
2024-04-17T08:15:53.785Z,2.38
2024-04-17T08:21:02.549Z,1.80
2024-04-17T08:26:09.295Z,1.75
2024-04-17T08:31:15.331Z,1.42
2024-04-17T08:36:23.812Z,1.80
2024-04-17T08:41:33.645Z,1.75
2024-04-17T08:46:40.675Z,1.50
2024-04-17T08:51:50.231Z,1.60
2024-04-17T08:56:57.608Z,1.38
2024-04-17T09:02:06.285Z,1.60
2024-04-17T09:07:15.300Z,1.60
2024-04-17T09:12:21.956Z,1.00
2024-04-17T09:17:30.322Z,1.27
2024-04-17T09:22:39.932Z,1.27
2024-04-17T09:27:45.890Z,1.55
2024-04-17T09:32:56.847Z,1.50
2024-04-17T09:38:05.822Z,1.30
2024-04-17T09:43:19.872Z,1.35
2024-04-17T09:48:29.726Z,1.23
2024-04-17T09:53:39.614Z,1.27
2024-04-17T09:58:56.615Z,0.93
2024-04-17T10:04:14.291Z,1.27
2024-04-17T10:09:27.204Z,1.30
2024-04-17T10:14:33.368Z,0.95
2024-04-17T10:19:39.258Z,1.08
2024-04-17T10:24:47.922Z,1.33
2024-04-17T10:29:53.733Z,1.23
2024-04-17T10:34:59.577Z,0.90
2024-04-17T10:40:09.615Z,1.30
2024-04-17T10:45:15.545Z,1.08
2024-04-17T10:50:21.484Z,1.30
2024-04-17T10:55:31.888Z,1.13
2024-04-17T11:00:37.858Z,0.80
2024-04-17T11:05:43.949Z,1.08
2024-04-17T11:10:52.779Z,1.05
2024-04-17T11:16:06.085Z,1.00
2024-04-17T11:21:13.683Z,1.08
2024-04-17T11:26:28.084Z,1.35
2024-04-17T11:31:33.986Z,1.80
2024-04-17T11:36:39.887Z,1.38
2024-04-17T11:41:55.534Z,1.65
2024-04-17T11:47:01.503Z,2.05
2024-04-17T11:52:09.461Z,1.75
2024-04-17T11:57:18.451Z,1.58
2024-04-17T12:02:24.368Z,1.40
2024-04-17T12:07:30.176Z,1.20
2024-04-17T12:12:38.622Z,1.30
2024-04-17T12:17:44.625Z,1.30
2024-04-17T12:22:50.504Z,1.60
2024-04-17T12:28:01.533Z,1.20
2024-04-17T12:33:07.552Z,1.40
2024-04-17T12:38:13.759Z,1.00
2024-04-17T12:43:27.270Z,1.20
2024-04-17T12:48:33.395Z,1.27
2024-04-17T12:53:39.337Z,1.45
2024-04-17T12:58:48.954Z,1.58
2024-04-17T13:03:58.588Z,1.17
2024-04-17T13:09:04.446Z,1.15
2024-04-17T13:14:13.462Z,1.40
2024-04-17T13:19:19.399Z,1.10
2024-04-17T13:24:25.285Z,1.60
2024-04-17T13:29:34.044Z,1.80
2024-04-17T13:34:39.883Z,1.60
2024-04-17T13:39:45.687Z,1.27
2024-04-17T13:44:54.235Z,1.17
2024-04-17T13:50:00.625Z,0.80
2024-04-17T13:55:07.008Z,0.88
2024-04-17T14:00:15.871Z,0.80
2024-04-17T14:05:24.064Z,0.90
2024-04-17T14:10:31.355Z,0.77
2024-04-17T14:15:43.289Z,1.20
2024-04-17T14:20:49.471Z,1.08
2024-04-17T14:25:59.901Z,1.85
2024-04-17T14:31:09.914Z,1.75
2024-04-17T14:36:16.000Z,1.70
2024-04-17T14:41:21.857Z,1.50
2024-04-17T14:46:30.412Z,2.03
2024-04-17T14:51:36.194Z,1.67
2024-04-17T14:56:41.953Z,1.73
2024-04-17T15:01:55.775Z,2.00
2024-04-17T15:07:01.865Z,1.80
2024-04-17T15:12:08.052Z,1.17
2024-04-17T15:17:16.473Z,1.35
2024-04-17T15:22:22.267Z,1.15
2024-04-17T15:27:28.268Z,1.30
2024-04-17T15:32:39.283Z,1.27
2024-04-17T15:42:51.006Z,1.52
2024-04-17T15:47:59.665Z,1.17
2024-04-17T15:53:05.741Z,1.20
2024-04-17T15:58:11.737Z,1.40
2024-04-17T16:03:20.542Z,1.10
2024-04-17T16:08:26.755Z,0.93
2024-04-17T16:13:35.371Z,1.00
2024-04-17T16:18:44.398Z,1.20
2024-04-17T16:23:51.773Z,0.70
2024-04-17T16:28:58.515Z,0.90
2024-04-17T16:34:07.386Z,1.20
2024-04-17T16:39:13.540Z,1.08
2024-04-17T16:44:19.715Z,1.40
2024-04-17T16:49:28.617Z,1.10
2024-04-17T16:54:34.743Z,1.73
2024-04-17T16:59:40.777Z,1.63
2024-04-17T17:04:52.247Z,1.90
2024-04-17T17:09:58.599Z,1.67
2024-04-17T17:15:07.159Z,1.77
2024-04-17T17:20:18.784Z,1.90
2024-04-17T17:25:25.988Z,1.80
2024-04-17T17:30:39.337Z,1.88
2024-04-17T17:35:56.916Z,1.70
2024-04-17T17:41:07.294Z,2.05
2024-04-17T17:46:14.618Z,1.93
2024-04-17T17:51:26.376Z,1.70
2024-04-17T17:56:32.407Z,2.13
2024-04-17T18:01:38.556Z,2.05
2024-04-17T18:06:48.675Z,1.90
2024-04-17T18:11:54.667Z,2.70
2024-04-17T18:17:00.746Z,1.98
2024-04-17T18:22:09.562Z,2.00
2024-04-17T18:27:15.556Z,2.30
2024-04-17T18:32:21.554Z,2.10
2024-04-17T18:37:30.238Z,2.22
2024-04-17T18:42:36.115Z,2.05
2024-04-17T18:47:43.614Z,2.53
2024-04-17T18:52:52.254Z,2.00
2024-04-17T18:58:01.026Z,1.92
2024-04-17T19:03:07.481Z,2.15
2024-04-17T19:08:16.040Z,2.17
2024-04-17T19:13:22.253Z,2.10
2024-04-17T19:18:28.212Z,2.00
2024-04-17T19:23:36.765Z,2.30
2024-04-17T19:28:44.081Z,2.00
2024-04-17T19:33:52.059Z,2.40
2024-04-17T19:39:02.510Z,2.40
2024-04-17T19:44:10.551Z,2.22
2024-04-17T19:49:16.779Z,2.20
2024-04-17T19:54:25.402Z,2.38
2024-04-17T19:59:34.999Z,2.30
2024-04-17T20:04:41.802Z,2.03
2024-04-17T20:09:50.572Z,2.40
2024-04-17T20:14:56.706Z,2.45
2024-04-17T20:20:02.655Z,1.73
2024-04-17T20:25:11.469Z,2.10
2024-04-17T20:30:17.484Z,2.03
2024-04-17T20:35:23.292Z,1.88
2024-04-17T20:40:31.819Z,1.48
2024-04-17T20:45:37.686Z,2.00
2024-04-17T20:50:43.852Z,2.30
2024-04-17T20:55:59.337Z,1.70
2024-04-17T21:01:07.163Z,2.13
2024-04-17T21:06:14.700Z,2.15
2024-04-17T21:11:23.246Z,2.08
2024-04-17T21:16:31.314Z,2.10
2024-04-17T21:21:37.202Z,2.53
2024-04-17T21:26:45.677Z,2.15
2024-04-17T21:31:51.475Z,2.05
2024-04-17T21:36:57.306Z,2.45
2024-04-17T21:42:06.100Z,2.15
2024-04-17T21:47:11.945Z,2.03
2024-04-17T21:52:18.638Z,2.33
2024-04-17T21:57:27.172Z,2.20
2024-04-17T22:02:33.068Z,2.20
2024-04-17T22:07:43.962Z,2.38
2024-04-17T22:12:52.437Z,3.00
2024-04-17T22:17:58.464Z,2.45
2024-04-17T22:23:04.247Z,1.60
2024-04-17T22:28:12.747Z,1.63
2024-04-17T22:33:18.608Z,1.40
2024-04-17T22:38:24.523Z,2.17
2024-04-17T22:43:33.009Z,1.52
2024-04-17T22:48:38.977Z,2.45
2024-04-17T22:53:44.811Z,2.30
2024-04-17T22:58:53.873Z,2.22
2024-04-17T23:03:59.871Z,2.65
2024-04-17T23:09:05.780Z,2.25
2024-04-17T23:14:14.273Z,2.30
2024-04-17T23:19:25.405Z,2.17
2024-04-17T23:24:31.961Z,2.00
2024-04-17T23:29:40.394Z,2.63
2024-04-17T23:34:46.273Z,2.47
2024-04-17T23:39:52.308Z,2.42
2024-04-17T23:45:00.874Z,2.15
2024-04-17T23:50:06.919Z,2.08
2024-04-17T23:55:12.695Z,2.30
